createdAt,value
2016-05-23T00:00:09.340Z,0
2016-05-23T00:01:09.781Z,0
2016-05-23T00:02:09.096Z,0
2016-05-23T00:03:09.614Z,0
2016-05-23T00:04:09.633Z,0
2016-05-23T00:05:09.308Z,0
2016-05-23T00:06:10.028Z,0
2016-05-23T00:07:09.406Z,0
2016-05-23T00:08:09.206Z,0
2016-05-23T00:09:09.740Z,0
2016-05-23T00:10:37.617Z,0
2016-05-23T00:11:23.761Z,0
2016-05-23T00:12:09.327Z,0
2016-05-23T00:13:09.672Z,0
2016-05-23T00:14:09.409Z,0
2016-05-23T00:15:08.706Z,0
2016-05-23T00:16:09.509Z,0
2016-05-23T00:17:10.121Z,0
2016-05-23T00:18:09.576Z,0
2016-05-23T00:19:09.424Z,0
2016-05-23T00:20:09.113Z,0
2016-05-23T00:21:09.804Z,0
2016-05-23T00:22:09.399Z,0
2016-05-23T00:23:09.357Z,0
2016-05-23T00:24:23.452Z,0
2016-05-23T00:25:23.595Z,0
2016-05-23T00:26:09.865Z,0
2016-05-23T00:27:09.475Z,0
2016-05-23T00:28:10.088Z,0
2016-05-23T00:29:10.137Z,0
2016-05-23T00:30:23.765Z,0
2016-05-23T00:31:09.565Z,0
2016-05-23T00:32:09.880Z,0
2016-05-23T00:33:09.695Z,0
2016-05-23T00:34:09.761Z,0
2016-05-23T00:35:09.497Z,0
2016-05-23T00:36:10.016Z,0
2016-05-23T00:37:09.612Z,0
2016-05-23T00:38:09.787Z,0
2016-05-23T00:39:09.992Z,0
2016-05-23T00:40:09.902Z,0
2016-05-23T00:41:09.495Z,0
2016-05-23T00:42:10.297Z,0
2016-05-23T00:43:09.816Z,0
2016-05-23T00:44:10.538Z,0
2016-05-23T00:45:09.805Z,0
2016-05-23T00:46:10.121Z,0
2016-05-23T00:47:10.092Z,0
2016-05-23T00:48:09.938Z,0
2016-05-23T00:49:10.113Z,0
2016-05-23T00:50:23.960Z,0
2016-05-23T00:51:09.885Z,0
2016-05-23T00:52:09.746Z,0
2016-05-23T00:54:24.236Z,0
2016-05-23T00:55:10.192Z,0
2016-05-23T00:56:10.037Z,0
2016-05-23T00:57:24.323Z,0
2016-05-23T00:58:09.588Z,0
2016-05-23T00:59:10.687Z,0
2016-05-23T01:00:09.749Z,0
2016-05-23T01:01:09.705Z,0
2016-05-23T01:03:24.103Z,0
2016-05-23T01:04:10.513Z,0
2016-05-23T01:05:24.328Z,0
2016-05-23T01:06:10.503Z,0
2016-05-23T01:07:10.270Z,0
2016-05-23T01:08:10.117Z,0
2016-05-23T01:09:10.183Z,0
2016-05-23T01:10:10.294Z,0
2016-05-23T01:11:10.406Z,0
2016-05-23T01:12:10.159Z,0
2016-05-23T01:13:10.003Z,0
2016-05-23T01:14:10.477Z,0
2016-05-23T01:15:10.386Z,0
2016-05-23T01:16:24.108Z,0
2016-05-23T01:17:24.454Z,0
2016-05-23T01:19:10.238Z,0
2016-05-23T01:20:10.038Z,0
2016-05-23T01:21:10.197Z,0
2016-05-23T01:22:10.749Z,0
2016-05-23T01:24:10.473Z,0
2016-05-23T01:25:09.832Z,0
2016-05-23T01:26:10.556Z,0
2016-05-23T01:27:10.275Z,0
2016-05-23T01:28:09.810Z,0
2016-05-23T01:29:10.343Z,0
2016-05-23T01:30:10.329Z,0
2016-05-23T01:31:10.176Z,0
2016-05-23T01:32:11.151Z,0
2016-05-23T01:33:10.542Z,0
2016-05-23T01:34:10.593Z,0
2016-05-23T01:35:09.875Z,0
2016-05-23T01:36:10.425Z,0
2016-05-23T01:37:10.598Z,0
2016-05-23T01:38:10.226Z,0
2016-05-23T01:39:10.717Z,0
2016-05-23T01:40:24.375Z,0
2016-05-23T01:41:10.656Z,0
2016-05-23T01:42:10.456Z,0
2016-05-23T01:43:10.522Z,0
2016-05-23T01:44:10.824Z,0
2016-05-23T01:45:10.089Z,0
2016-05-23T01:46:24.782Z,0
2016-05-23T01:47:10.563Z,0
2016-05-23T01:48:10.960Z,0
2016-05-23T01:49:24.821Z,0
2016-05-23T01:50:10.727Z,0
2016-05-23T01:51:25.061Z,0
2016-05-23T01:52:24.688Z,0
2016-05-23T01:53:10.548Z,0
2016-05-23T01:54:24.647Z,0
2016-05-23T01:55:10.569Z,0
2016-05-23T01:56:10.385Z,0
2016-05-23T01:57:10.824Z,0
2016-05-23T01:58:10.843Z,0
2016-05-23T01:59:10.752Z,0
2016-05-23T02:00:10.848Z,0
2016-05-23T02:01:10.898Z,0
2016-05-23T02:02:10.915Z,0
2016-05-23T02:03:10.419Z,0
2016-05-23T02:04:10.671Z,0
2016-05-23T02:06:24.976Z,0
2016-05-23T02:07:11.400Z,0
2016-05-23T02:08:11.404Z,0
2016-05-23T02:09:10.889Z,0
2016-05-23T02:10:10.673Z,0
2016-05-23T02:11:11.397Z,0
2016-05-23T02:12:11.461Z,0
2016-05-23T02:13:10.633Z,0
2016-05-23T02:14:10.807Z,0
2016-05-23T02:15:10.764Z,0
2016-05-23T02:16:11.219Z,0
2016-05-23T02:17:10.910Z,0
2016-05-23T02:18:10.818Z,0
2016-05-23T02:19:11.071Z,0
2016-05-23T02:20:11.496Z,0
2016-05-23T02:21:11.061Z,0
2016-05-23T02:23:10.613Z,0
2016-05-23T02:24:10.897Z,0
2016-05-23T02:25:10.978Z,0
2016-05-23T02:26:10.621Z,0
2016-05-23T02:27:10.640Z,0
2016-05-23T02:28:10.924Z,0
2016-05-23T02:29:12.254Z,0
2016-05-23T02:30:25.323Z,0
2016-05-23T02:31:11.119Z,0
2016-05-23T02:32:11.153Z,0
2016-05-23T02:33:10.735Z,0
2016-05-23T02:34:25.302Z,0
2016-05-23T02:35:25.101Z,0
2016-05-23T02:36:11.086Z,0
2016-05-23T02:37:11.291Z,0
2016-05-23T02:39:25.753Z,0
2016-05-23T02:40:25.395Z,0
2016-05-23T02:41:24.665Z,0
2016-05-23T02:42:11.399Z,0
2016-05-23T02:43:10.636Z,0
2016-05-23T02:44:11.123Z,0
2016-05-23T02:45:11.750Z,0
2016-05-23T02:46:11.363Z,0
2016-05-23T02:47:10.866Z,0
2016-05-23T02:48:12.024Z,0
2016-05-23T02:49:10.855Z,0
2016-05-23T02:50:10.874Z,0
2016-05-23T02:51:11.361Z,0
2016-05-23T02:52:11.394Z,0
2016-05-23T02:53:11.428Z,0
2016-05-23T02:54:11.462Z,5
2016-05-23T02:56:10.905Z,5
2016-05-23T02:57:11.408Z,5
2016-05-23T02:58:11.442Z,5
2016-05-23T02:59:11.241Z,5
2016-05-23T03:00:11.478Z,5
2016-05-23T03:01:11.278Z,10
2016-05-23T03:02:25.659Z,10
2016-05-23T03:03:11.268Z,10
2016-05-23T03:04:11.379Z,10
2016-05-23T03:05:11.132Z,10
2016-05-23T03:07:11.481Z,15
2016-05-23T03:08:11.515Z,15
2016-05-23T03:09:11.628Z,15
2016-05-23T03:10:39.742Z,15
2016-05-23T03:11:11.586Z,15
2016-05-23T03:12:11.620Z,20
2016-05-23T03:13:11.451Z,20
2016-05-23T03:14:12.063Z,20
2016-05-23T03:15:11.862Z,25
2016-05-23T03:16:11.865Z,25
2016-05-23T03:17:25.449Z,30
2016-05-23T03:18:11.183Z,30
2016-05-23T03:19:12.122Z,30
2016-05-23T03:20:11.517Z,35
2016-05-23T03:21:11.316Z,40
2016-05-23T03:22:11.178Z,40
2016-05-23T03:23:11.463Z,45
2016-05-23T03:24:11.386Z,45
2016-05-23T03:25:11.483Z,45
2016-05-23T03:26:11.611Z,50
2016-05-23T03:27:11.349Z,50
2016-05-23T03:28:11.554Z,55
2016-05-23T03:29:25.902Z,60
2016-05-23T03:30:11.574Z,60
2016-05-23T03:31:11.749Z,65
2016-05-23T03:32:11.533Z,70
2016-05-23T03:33:11.645Z,70
2016-05-23T03:34:12.413Z,75
2016-05-23T03:35:11.681Z,80
2016-05-23T03:36:12.419Z,80
2016-05-23T03:37:11.828Z,85
2016-05-23T03:38:11.674Z,85
2016-05-23T03:39:11.692Z,90
2016-05-23T03:40:11.820Z,95
2016-05-23T03:41:11.761Z,95
2016-05-23T03:42:26.172Z,100
2016-05-23T03:43:12.375Z,100
2016-05-23T03:44:11.784Z,105
2016-05-23T03:45:25.774Z,110
2016-05-23T03:46:12.352Z,110
2016-05-23T03:47:11.886Z,110
2016-05-23T03:48:11.419Z,115
2016-05-23T03:49:11.767Z,115
2016-05-23T03:50:11.785Z,120
2016-05-23T03:51:25.509Z,125
2016-05-23T03:52:26.074Z,130
2016-05-23T03:53:11.824Z,130
2016-05-23T03:54:11.811Z,135
2016-05-23T03:55:11.767Z,140
2016-05-23T03:56:11.536Z,150
2016-05-23T03:57:11.772Z,145
2016-05-23T03:58:12.057Z,150
2016-05-23T03:59:12.230Z,155
2016-05-23T04:00:11.437Z,155
2016-05-23T04:01:11.955Z,160
2016-05-23T04:02:25.616Z,165
2016-05-23T04:03:11.210Z,165
2016-05-23T04:04:11.932Z,170
2016-05-23T04:05:11.935Z,170
2016-05-23T04:06:12.343Z,170
2016-05-23T04:07:11.971Z,170
2016-05-23T04:08:12.130Z,175
2016-05-23T04:09:26.026Z,175
2016-05-23T04:10:25.529Z,180
2016-05-23T04:11:11.904Z,180
2016-05-23T04:12:11.984Z,180
2016-05-23T04:13:12.409Z,185
2016-05-23T04:14:12.287Z,185
2016-05-23T04:15:12.134Z,185
2016-05-23T04:16:12.245Z,185
2016-05-23T04:17:26.142Z,185
2016-05-23T04:18:12.486Z,185
2016-05-23T04:19:26.162Z,185
2016-05-23T04:20:26.322Z,185
2016-05-23T04:21:11.759Z,190
2016-05-23T04:22:11.574Z,185
2016-05-23T04:23:12.217Z,185
2016-05-23T04:24:25.722Z,185
2016-05-23T04:25:12.191Z,190
2016-05-23T04:26:12.194Z,185
2016-05-23T04:27:12.385Z,190
2016-05-23T04:28:12.591Z,190
2016-05-23T04:29:26.752Z,195
2016-05-23T04:30:12.643Z,190
2016-05-23T04:31:12.191Z,195
2016-05-23T04:32:12.616Z,195
2016-05-23T04:33:26.668Z,200
2016-05-23T04:34:12.449Z,205
2016-05-23T04:35:12.437Z,210
2016-05-23T04:36:12.627Z,210
2016-05-23T04:37:12.490Z,220
2016-05-23T04:38:26.323Z,230
2016-05-23T04:39:12.292Z,235
2016-05-23T04:40:12.466Z,235
2016-05-23T04:41:12.265Z,235
2016-05-23T04:42:12.675Z,235
2016-05-23T04:43:12.334Z,235
2016-05-23T04:44:12.774Z,235
2016-05-23T04:45:12.433Z,225
2016-05-23T04:46:12.248Z,225
2016-05-23T04:47:40.941Z,225
2016-05-23T04:48:12.472Z,225
2016-05-23T04:50:12.431Z,220
2016-05-23T04:51:13.028Z,220
2016-05-23T04:52:12.671Z,220
2016-05-23T04:53:13.329Z,220
2016-05-23T04:54:26.913Z,230
2016-05-23T04:55:12.413Z,225
2016-05-23T04:56:12.728Z,230
2016-05-23T04:57:12.450Z,230
2016-05-23T04:58:12.922Z,230
2016-05-23T05:00:13.691Z,230
2016-05-23T05:01:12.945Z,225
2016-05-23T05:02:12.525Z,220
2016-05-23T05:03:12.950Z,220
2016-05-23T05:04:12.796Z,220
2016-05-23T05:05:12.549Z,220
2016-05-23T05:06:26.836Z,220
2016-05-23T05:07:12.774Z,220
2016-05-23T05:08:12.870Z,220
2016-05-23T05:09:12.904Z,225
2016-05-23T05:10:13.063Z,225
2016-05-23T05:11:12.487Z,230
2016-05-23T05:12:12.490Z,225
2016-05-23T05:13:27.339Z,225
2016-05-23T05:14:26.592Z,220
2016-05-23T05:15:12.607Z,220
2016-05-23T05:16:12.687Z,220
2016-05-23T05:17:26.770Z,220
2016-05-23T05:18:12.428Z,220
2016-05-23T05:19:12.478Z,220
2016-05-23T05:20:13.152Z,215
2016-05-23T05:21:12.765Z,215
2016-05-23T05:22:12.767Z,215
2016-05-23T05:23:12.878Z,215
2016-05-23T05:24:13.007Z,215
2016-05-23T05:25:12.650Z,220
2016-05-23T05:26:12.855Z,225
2016-05-23T05:27:13.000Z,225
2016-05-23T05:28:12.908Z,235
2016-05-23T05:29:27.130Z,245
2016-05-23T05:30:14.180Z,255
2016-05-23T05:31:26.947Z,260
2016-05-23T05:32:12.950Z,260
2016-05-23T05:33:12.421Z,265
2016-05-23T05:34:12.815Z,265
2016-05-23T05:35:12.943Z,265
2016-05-23T05:36:12.946Z,265
2016-05-23T05:37:15.026Z,265
2016-05-23T05:38:12.997Z,270
2016-05-23T05:39:13.047Z,270
2016-05-23T05:40:13.019Z,270
2016-05-23T05:41:13.412Z,275
2016-05-23T05:43:12.715Z,280
2016-05-23T05:44:12.951Z,280
2016-05-23T05:45:12.954Z,280
2016-05-23T05:46:12.643Z,275
2016-05-23T05:48:27.259Z,250
2016-05-23T05:49:13.370Z,245
2016-05-23T05:50:13.201Z,255
2016-05-23T05:51:13.345Z,240
2016-05-23T05:52:12.973Z,235
2016-05-23T05:53:12.678Z,235
2016-05-23T05:54:12.665Z,230
2016-05-23T05:55:13.168Z,245
2016-05-23T05:56:13.405Z,250
2016-05-23T05:57:13.408Z,255
2016-05-23T05:58:12.708Z,255
2016-05-23T06:00:13.650Z,270
2016-05-23T06:01:13.372Z,280
2016-05-23T06:02:13.266Z,285
2016-05-23T06:03:13.190Z,285
2016-05-23T06:04:13.474Z,275
2016-05-23T06:05:13.555Z,290
2016-05-23T06:06:14.042Z,310
2016-05-23T06:07:27.388Z,325
2016-05-23T06:08:13.374Z,330
2016-05-23T06:09:13.409Z,320
2016-05-23T06:10:13.583Z,325
2016-05-23T06:11:13.415Z,320
2016-05-23T06:13:28.373Z,345
2016-05-23T06:14:13.828Z,355
2016-05-23T06:15:13.285Z,355
2016-05-23T06:16:16.209Z,365
2016-05-23T06:17:41.809Z,365
2016-05-23T06:18:13.465Z,365
2016-05-23T06:19:13.483Z,345
2016-05-23T06:20:13.720Z,340
2016-05-23T06:21:13.520Z,350
2016-05-23T06:22:13.507Z,375
2016-05-23T06:23:13.493Z,400
2016-05-23T06:24:13.574Z,415
2016-05-23T06:25:13.952Z,435
2016-05-23T06:26:13.798Z,475
2016-05-23T06:27:13.817Z,495
2016-05-23T06:28:13.428Z,505
2016-05-23T06:29:27.681Z,465
2016-05-23T06:30:14.966Z,455
2016-05-23T06:31:27.078Z,435
2016-05-23T06:32:28.111Z,415
2016-05-23T06:33:28.411Z,375
2016-05-23T06:34:27.773Z,355
2016-05-23T06:35:27.605Z,325
2016-05-23T06:36:15.825Z,310
2016-05-23T06:37:13.953Z,310
2016-05-23T06:38:13.925Z,275
2016-05-23T06:39:14.116Z,265
2016-05-23T06:40:13.773Z,245
2016-05-23T06:41:15.277Z,250
2016-05-23T06:42:13.841Z,275
2016-05-23T06:43:13.516Z,260
2016-05-23T06:44:27.924Z,255
2016-05-23T06:45:14.115Z,250
2016-05-23T06:46:14.149Z,230
2016-05-23T06:47:14.074Z,240
2016-05-23T06:48:13.874Z,245
2016-05-23T06:49:14.324Z,250
2016-05-23T06:50:15.789Z,225
2016-05-23T06:51:14.380Z,225
2016-05-23T06:52:27.939Z,240
2016-05-23T06:53:14.045Z,235
2016-05-23T06:54:13.744Z,245
2016-05-23T06:55:17.490Z,245
2016-05-23T06:56:14.190Z,265
2016-05-23T06:57:14.156Z,280
2016-05-23T06:58:14.229Z,310
2016-05-23T06:59:14.798Z,340
2016-05-23T07:00:18.646Z,370
2016-05-23T07:01:14.857Z,380
2016-05-23T07:02:14.799Z,390
2016-05-23T07:03:14.321Z,395
2016-05-23T07:04:14.497Z,420
2016-05-23T07:05:14.469Z,445
2016-05-23T07:06:15.254Z,465
2016-05-23T07:07:14.554Z,480
2016-05-23T07:08:14.887Z,485
2016-05-23T07:09:14.561Z,485
2016-05-23T07:10:14.393Z,480
2016-05-23T07:11:28.600Z,475
2016-05-23T07:12:14.680Z,465
2016-05-23T07:13:14.558Z,450
2016-05-23T07:14:14.999Z,425
2016-05-23T07:15:14.330Z,400
2016-05-23T07:16:14.317Z,390
2016-05-23T07:17:14.696Z,395
2016-05-23T07:18:14.339Z,410
2016-05-23T07:19:14.326Z,430
2016-05-23T07:20:14.704Z,450
2016-05-23T07:21:28.926Z,460
2016-05-23T07:22:14.585Z,465
2016-05-23T07:23:28.853Z,435
2016-05-23T07:24:14.496Z,410
2016-05-23T07:25:14.546Z,395
2016-05-23T07:26:14.470Z,415
2016-05-23T07:27:28.863Z,450
2016-05-23T07:28:14.834Z,450
2016-05-23T07:29:29.150Z,455
2016-05-23T07:30:42.296Z,480
2016-05-23T07:31:15.390Z,480
2016-05-23T07:32:14.861Z,475
2016-05-23T07:33:14.583Z,470
2016-05-23T07:34:14.725Z,515
2016-05-23T07:35:14.932Z,535
2016-05-23T07:36:15.856Z,530
2016-05-23T07:37:14.781Z,485
2016-05-23T07:38:28.831Z,445
2016-05-23T07:39:14.803Z,435
2016-05-23T07:40:14.680Z,435
2016-05-23T07:41:16.917Z,455
2016-05-23T07:42:14.825Z,485
2016-05-23T07:43:15.110Z,515
2016-05-23T07:44:14.908Z,535
2016-05-23T07:45:14.928Z,520
2016-05-23T07:46:16.852Z,495
2016-05-23T07:47:15.151Z,470
2016-05-23T07:48:15.154Z,480
2016-05-23T07:49:29.172Z,485
2016-05-23T07:50:15.112Z,480
2016-05-23T07:51:15.022Z,285
2016-05-23T07:52:15.196Z,465
2016-05-23T07:53:15.074Z,480
2016-05-23T07:54:15.045Z,500
2016-05-23T07:55:29.079Z,535
2016-05-23T07:56:18.723Z,555
2016-05-23T07:57:15.898Z,570
2016-05-23T07:58:15.478Z,555
2016-05-23T07:59:15.090Z,525
2016-05-23T08:00:15.155Z,510
2016-05-23T08:01:29.190Z,500
2016-05-23T08:02:15.317Z,520
2016-05-23T08:03:29.851Z,565
2016-05-23T08:04:15.369Z,550
2016-05-23T08:05:18.340Z,535
2016-05-23T08:06:29.312Z,580
2016-05-23T08:07:18.096Z,590
2016-05-23T08:08:15.255Z,600
2016-05-23T08:09:15.648Z,605
2016-05-23T08:10:15.323Z,630
2016-05-23T08:11:17.404Z,650
2016-05-23T08:12:29.719Z,695
2016-05-23T08:13:43.287Z,710
2016-05-23T08:14:16.287Z,700
2016-05-23T08:15:15.836Z,680
2016-05-23T08:16:15.166Z,690
2016-05-23T08:17:18.357Z,705
2016-05-23T08:18:18.469Z,735
2016-05-23T08:19:15.441Z,730
2016-05-23T08:20:15.444Z,725
2016-05-23T08:21:16.743Z,685
2016-05-23T08:22:15.465Z,665
2016-05-23T08:23:15.482Z,670
2016-05-23T08:24:15.501Z,740
2016-05-23T08:25:18.472Z,745
2016-05-23T08:26:15.897Z,700
2016-05-23T08:27:15.868Z,675
2016-05-23T08:28:15.559Z,655
2016-05-23T08:29:15.858Z,555
2016-05-23T08:30:29.861Z,450
2016-05-23T08:31:16.848Z,410
2016-05-23T08:32:15.976Z,440
2016-05-23T08:33:15.634Z,520
2016-05-23T08:34:18.715Z,480
2016-05-23T08:35:16.062Z,410
2016-05-23T08:36:15.674Z,410
2016-05-23T08:37:15.723Z,420
2016-05-23T08:38:15.554Z,420
2016-05-23T08:39:15.979Z,440
2016-05-23T08:40:15.809Z,510
2016-05-23T08:41:16.125Z,540
2016-05-23T08:42:36.083Z,460
2016-05-23T08:43:19.427Z,445
2016-05-23T08:44:17.180Z,445
2016-05-23T08:45:18.964Z,440
2016-05-23T08:46:17.858Z,445
2016-05-23T08:47:15.578Z,460
2016-05-23T08:48:16.285Z,475
2016-05-23T08:49:15.288Z,465
2016-05-23T08:50:16.274Z,435
2016-05-23T08:51:17.073Z,435
2016-05-23T08:52:15.951Z,425
2016-05-23T08:53:30.048Z,440
2016-05-23T08:54:15.941Z,455
2016-05-23T08:55:16.022Z,460
2016-05-23T08:56:17.182Z,460
2016-05-23T08:57:15.855Z,455
2016-05-23T08:58:16.327Z,445
2016-05-23T08:59:16.501Z,480
2016-05-23T09:00:16.207Z,490
2016-05-23T09:01:16.085Z,500
2016-05-23T09:02:15.947Z,505
2016-05-23T09:03:16.184Z,505
2016-05-23T09:04:19.343Z,505
2016-05-23T09:05:16.127Z,510
2016-05-23T09:06:16.129Z,505
2016-05-23T09:07:16.164Z,500
2016-05-23T09:08:16.464Z,500
2016-05-23T09:09:17.184Z,500
2016-05-23T09:10:16.234Z,510
2016-05-23T09:11:16.049Z,510
2016-05-23T09:12:16.052Z,515
2016-05-23T09:13:16.211Z,530
2016-05-23T09:14:16.464Z,540
2016-05-23T09:15:16.467Z,535
2016-05-23T09:16:16.313Z,520
2016-05-23T09:17:16.284Z,565
2016-05-23T09:18:17.116Z,610
2016-05-23T09:19:16.197Z,620
2016-05-23T09:20:16.574Z,585
2016-05-23T09:21:16.374Z,570
2016-05-23T09:22:16.547Z,565
2016-05-23T09:23:16.363Z,560
2016-05-23T09:24:16.412Z,555
2016-05-23T09:25:16.509Z,585
2016-05-23T09:26:16.418Z,610
2016-05-23T09:27:17.749Z,620
2016-05-23T09:28:16.313Z,620
2016-05-23T09:29:16.348Z,590
2016-05-23T09:30:19.663Z,600
2016-05-23T09:31:16.337Z,610
2016-05-23T09:33:16.531Z,550
2016-05-23T09:34:16.736Z,565
2016-05-23T09:35:16.254Z,590
2016-05-23T09:36:31.007Z,595
2016-05-23T09:37:19.541Z,665
2016-05-23T09:38:16.637Z,645
2016-05-23T09:39:17.125Z,640
2016-05-23T09:40:16.642Z,685
2016-05-23T09:41:19.505Z,680
2016-05-23T09:42:16.601Z,735
2016-05-23T09:43:16.479Z,755
2016-05-23T09:44:17.373Z,700
2016-05-23T09:45:16.781Z,680
2016-05-23T09:46:16.706Z,625
2016-05-23T09:47:17.052Z,710
2016-05-23T09:48:16.915Z,800
2016-05-23T09:49:16.808Z,815
2016-05-23T09:50:17.044Z,790
2016-05-23T09:51:16.360Z,820
2016-05-23T09:52:17.222Z,825
2016-05-23T09:53:16.741Z,800
2016-05-23T09:54:16.727Z,760
2016-05-23T09:55:17.168Z,725
2016-05-23T09:56:31.014Z,710
2016-05-23T09:57:17.032Z,710
2016-05-23T09:58:16.629Z,710
2016-05-23T09:59:18.054Z,715
2016-05-23T10:00:17.369Z,775
2016-05-23T10:01:17.074Z,825
2016-05-23T10:02:17.249Z,815
2016-05-23T10:03:17.065Z,780
2016-05-23T10:04:17.099Z,760
2016-05-23T10:05:16.992Z,735
2016-05-23T10:06:16.932Z,715
2016-05-23T10:07:20.075Z,730
2016-05-23T10:08:31.484Z,735
2016-05-23T10:09:31.205Z,700
2016-05-23T10:10:17.098Z,680
2016-05-23T10:11:17.226Z,650
2016-05-23T10:12:17.401Z,630
2016-05-23T10:13:17.388Z,610
2016-05-23T10:14:17.750Z,600
2016-05-23T10:15:17.159Z,615
2016-05-23T10:16:17.272Z,630
2016-05-23T10:17:17.367Z,650
2016-05-23T10:18:17.510Z,680
2016-05-23T10:19:16.967Z,705
2016-05-23T10:20:17.453Z,725
2016-05-23T10:21:17.597Z,695
2016-05-23T10:22:17.537Z,710
2016-05-23T10:23:20.571Z,715
2016-05-23T10:24:17.386Z,705
2016-05-23T10:25:17.702Z,675
2016-05-23T10:26:17.298Z,670
2016-05-23T10:27:17.238Z,675
2016-05-23T10:28:17.366Z,675
2016-05-23T10:29:17.478Z,735
2016-05-23T10:30:17.730Z,795
2016-05-23T10:31:17.749Z,865
2016-05-23T10:33:17.521Z,895
2016-05-23T10:34:17.725Z,855
2016-05-23T10:35:17.400Z,835
2016-05-23T10:36:17.450Z,845
2016-05-23T10:37:17.593Z,845
2016-05-23T10:38:17.783Z,870
2016-05-23T10:39:17.567Z,905
2016-05-23T10:40:17.554Z,915
2016-05-23T10:41:17.917Z,885
2016-05-23T10:42:17.700Z,870
2016-05-23T10:43:17.937Z,865
2016-05-23T10:44:18.096Z,850
2016-05-23T10:45:17.864Z,810
2016-05-23T10:46:17.789Z,765
2016-05-23T10:47:17.620Z,765
2016-05-23T10:48:17.497Z,740
2016-05-23T10:49:18.078Z,760
2016-05-23T10:50:17.831Z,775
2016-05-23T10:51:17.881Z,765
2016-05-23T10:52:17.696Z,720
2016-05-23T10:53:17.902Z,715
2016-05-23T10:54:17.858Z,700
2016-05-23T10:55:17.986Z,690
2016-05-23T10:56:17.988Z,700
2016-05-23T10:57:17.521Z,685
2016-05-23T10:58:17.696Z,685
2016-05-23T10:59:18.449Z,675
2016-05-23T11:00:18.233Z,665
2016-05-23T11:01:17.860Z,655
2016-05-23T11:02:18.035Z,635
2016-05-23T11:03:17.429Z,620
2016-05-23T11:04:17.838Z,605
2016-05-23T11:05:18.340Z,595
2016-05-23T11:06:32.171Z,620
2016-05-23T11:07:18.205Z,630
2016-05-23T11:08:18.208Z,640
2016-05-23T11:09:18.460Z,640
2016-05-23T11:10:18.026Z,640
2016-05-23T11:11:18.294Z,625
2016-05-23T11:12:18.109Z,635
2016-05-23T11:13:32.753Z,650
2016-05-23T11:14:18.083Z,675
2016-05-23T11:15:18.570Z,700
2016-05-23T11:16:32.558Z,675
2016-05-23T11:17:18.373Z,625
2016-05-23T11:18:18.860Z,615
2016-05-23T11:19:19.081Z,620
2016-05-23T11:20:18.256Z,620
2016-05-23T11:22:18.433Z,625
2016-05-23T11:23:32.717Z,640
2016-05-23T11:24:18.454Z,635
2016-05-23T11:25:18.925Z,640
2016-05-23T11:26:18.460Z,705
2016-05-23T11:27:18.478Z,755
2016-05-23T11:28:18.543Z,705
2016-05-23T11:29:18.077Z,670
2016-05-23T11:30:18.799Z,750
2016-05-23T11:31:18.863Z,775
2016-05-23T11:32:18.632Z,735
2016-05-23T11:33:18.682Z,695
2016-05-23T11:34:18.841Z,685
2016-05-23T11:35:18.140Z,720
2016-05-23T11:36:18.940Z,765
2016-05-23T11:37:18.646Z,800
2016-05-23T11:38:18.913Z,870
2016-05-23T11:39:19.885Z,900
2016-05-23T11:40:32.762Z,890
2016-05-23T11:41:18.734Z,915
2016-05-23T11:42:19.315Z,935
2016-05-23T11:43:18.786Z,930
2016-05-23T11:44:19.633Z,905
2016-05-23T11:45:19.307Z,855
2016-05-23T11:46:32.997Z,805
2016-05-23T11:47:19.297Z,780
2016-05-23T11:48:18.862Z,750
2016-05-23T11:49:18.646Z,735
2016-05-23T11:50:19.133Z,765
2016-05-23T11:51:18.823Z,790
2016-05-23T11:52:19.217Z,810
2016-05-23T11:53:19.392Z,840
2016-05-23T11:54:33.081Z,855
2016-05-23T11:55:20.413Z,850
2016-05-23T11:56:19.586Z,885
2016-05-23T11:57:18.777Z,935
2016-05-23T11:58:19.296Z,915
2016-05-23T11:59:22.049Z,910
2016-05-23T12:00:21.005Z,865
2016-05-23T12:01:34.615Z,735
2016-05-23T12:02:19.431Z,710
2016-05-23T12:04:19.499Z,835
2016-05-23T12:05:19.971Z,870
2016-05-23T12:06:20.271Z,960
2016-05-23T12:07:19.132Z,1005
2016-05-23T12:08:19.807Z,975
2016-05-23T12:09:20.513Z,905
2016-05-23T12:10:19.375Z,860
2016-05-23T12:11:33.909Z,820
2016-05-23T12:12:20.020Z,800
2016-05-23T12:13:20.320Z,805
2016-05-23T12:14:20.417Z,795
2016-05-23T12:15:34.060Z,715
2016-05-23T12:16:20.703Z,775
2016-05-23T12:17:34.190Z,865
2016-05-23T12:18:20.802Z,880
2016-05-23T12:19:20.305Z,855
2016-05-23T12:20:20.355Z,750
2016-05-23T12:21:19.998Z,860
2016-05-23T12:22:20.642Z,855
2016-05-23T12:23:20.534Z,860
2016-05-23T12:24:20.428Z,830
2016-05-23T12:25:20.649Z,705
2016-05-23T12:26:20.074Z,580
2016-05-23T12:27:34.358Z,615
2016-05-23T12:28:20.408Z,670
2016-05-23T12:29:34.347Z,670
2016-05-23T12:30:22.210Z,615
2016-05-23T12:31:19.275Z,595
2016-05-23T12:32:34.308Z,710
2016-05-23T12:33:20.046Z,810
2016-05-23T12:34:20.438Z,730
2016-05-23T12:35:20.238Z,680
2016-05-23T12:36:20.569Z,495
2016-05-23T12:37:34.088Z,680
2016-05-23T12:38:20.247Z,730
2016-05-23T12:39:19.968Z,680
2016-05-23T12:40:21.845Z,695
2016-05-23T12:41:20.036Z,675
2016-05-23T12:43:22.167Z,645
2016-05-23T12:44:20.404Z,610
2016-05-23T12:45:21.156Z,595
2016-05-23T12:46:20.581Z,625
2016-05-23T12:47:22.303Z,620
2016-05-23T12:48:22.446Z,610
2016-05-23T12:49:21.198Z,480
2016-05-23T12:50:20.638Z,400
2016-05-23T12:51:22.892Z,530
2016-05-23T12:52:21.441Z,635
2016-05-23T12:53:26.053Z,665
2016-05-23T12:54:21.322Z,665
2016-05-23T12:55:21.542Z,640
2016-05-23T12:56:20.185Z,610
2016-05-23T12:57:21.329Z,645
2016-05-23T12:58:21.113Z,665
2016-05-23T12:59:21.006Z,660
2016-05-23T13:00:20.977Z,690
2016-05-23T13:01:20.730Z,685
2016-05-23T13:02:20.764Z,660
2016-05-23T13:03:20.830Z,665
2016-05-23T13:05:35.101Z,625
2016-05-23T13:06:35.057Z,645
2016-05-23T13:07:20.965Z,655
2016-05-23T13:08:22.265Z,670
2016-05-23T13:09:21.268Z,665
2016-05-23T13:10:21.458Z,635
2016-05-23T13:11:21.492Z,605
2016-05-23T13:12:21.995Z,625
2016-05-23T13:13:21.262Z,610
2016-05-23T13:14:22.671Z,565
2016-05-23T13:15:34.408Z,515
2016-05-23T13:16:22.240Z,555
2016-05-23T13:17:20.867Z,670
2016-05-23T13:18:34.901Z,715
2016-05-23T13:19:20.639Z,700
2016-05-23T13:20:20.703Z,655
2016-05-23T13:21:21.050Z,660
2016-05-23T13:22:21.162Z,695
2016-05-23T13:23:22.242Z,740
2016-05-23T13:24:22.761Z,755
2016-05-23T13:25:22.436Z,735
2016-05-23T13:26:35.892Z,705
2016-05-23T13:27:21.785Z,695
2016-05-23T13:28:21.350Z,670
2016-05-23T13:29:21.478Z,630
2016-05-23T13:30:22.355Z,480
2016-05-23T13:31:35.889Z,455
2016-05-23T13:32:21.860Z,555
2016-05-23T13:33:22.067Z,580
2016-05-23T13:34:21.679Z,550
2016-05-23T13:35:20.524Z,530
2016-05-23T13:36:20.981Z,595
2016-05-23T13:37:21.577Z,690
2016-05-23T13:38:21.892Z,765
2016-05-23T13:39:21.349Z,820
2016-05-23T13:40:21.570Z,835
2016-05-23T13:41:21.619Z,865
2016-05-23T13:42:21.451Z,850
2016-05-23T13:43:21.297Z,845
2016-05-23T13:44:21.705Z,760
2016-05-23T13:45:34.896Z,685
2016-05-23T13:46:21.507Z,690
2016-05-23T13:47:21.135Z,705
2016-05-23T13:48:21.559Z,745
2016-05-23T13:49:35.469Z,705
2016-05-23T13:50:21.425Z,665
2016-05-23T13:51:21.381Z,630
2016-05-23T13:52:21.399Z,610
2016-05-23T13:53:21.324Z,610
2016-05-23T13:54:21.091Z,655
2016-05-23T13:55:22.078Z,620
2016-05-23T13:56:21.909Z,620
2016-05-23T13:57:21.944Z,570
2016-05-23T13:58:35.836Z,520
2016-05-23T13:59:21.496Z,535
2016-05-23T14:00:21.577Z,490
2016-05-23T14:02:35.519Z,470
2016-05-23T14:03:23.303Z,470
2016-05-23T14:04:21.244Z,465
2016-05-23T14:05:20.683Z,470
2016-05-23T14:06:21.405Z,510
2016-05-23T14:07:21.361Z,620
2016-05-23T14:08:21.707Z,615
2016-05-23T14:10:21.479Z,640
2016-05-23T14:11:21.590Z,650
2016-05-23T14:12:21.657Z,745
2016-05-23T14:13:21.596Z,760
2016-05-23T14:14:21.504Z,730
2016-05-23T14:16:22.307Z,795
2016-05-23T14:17:35.966Z,810
2016-05-23T14:18:21.906Z,820
2016-05-23T14:19:22.893Z,740
2016-05-23T14:20:22.615Z,680
2016-05-23T14:21:35.898Z,965
2016-05-23T14:22:35.901Z,970
2016-05-23T14:23:21.201Z,995